Terminal Aerodrome Forecast
Issued by NWS

Home | Current Version | Previous Version | Text Only | Print | Product List | Glossary Off
Versions: 1 2 3 4 5 6 7 8 9 10 11 12 13 14 15 16 17 18 19 20 21 22 23 24 25 26 27 28 29 30 31 32 33 34 35 36 37 38 39 40 41 42 43 44

480
FTUS43 KGRB 281726
TAFRHI
TAF
KRHI 281726Z 2818/2918 04009G17KT P6SM SCT025 BKN035
     FM290100 03006KT P6SM BKN030
     FM290300 03005KT P6SM BKN015
     FM290400 03005KT P6SM SCT015
     FM290700 03003KT 4SM BR SCT010
     FM291300 04007KT P6SM SCT200=

USA.gov is the U.S. government's official web portal to all federal, state and local government web resources and services.